Time;durP1;ratioP1;P1;durP2;ratioP2;P2;SDS_P1;SDS_P2;PMS_P1;PMS_P2;Temp;Humidity;BMP_temperature;BMP_pressure;BME280_temperature;BME280_humidity;BME280_pressure;Samples;Min_cycle;Max_cycle;Signal;HPM_P1;HPM_P2
2022/11/22 00:04:24;;;;;;;461.57;118.57;;;2.60;99.90;;;;;;10467500;28;20170;-77
2022/11/22 00:09:24;;;;;;;375.07;117.23;;;2.60;99.90;;;;;;10479866;28;20182;-78
2022/11/22 00:14:25;;;;;;;494.50;108.87;;;2.70;99.90;;;;;;10481212;28;20032;-79
2022/11/22 00:19:25;;;;;;;243.43;79.60;;;2.70;99.90;;;;;;10464515;28;20112;-77
2022/11/22 00:24:26;;;;;;;333.63;92.07;;;2.70;99.90;;;;;;10470754;28;20755;-78
2022/11/22 00:29:27;;;;;;;241.97;80.40;;;2.70;99.90;;;;;;10463817;28;20041;-78
2022/11/22 00:34:27;;;;;;;255.20;87.83;;;2.70;99.90;;;;;;10474710;28;20068;-78
2022/11/22 00:39:28;;;;;;;243.13;90.97;;;2.70;99.90;;;;;;10474702;28;20740;-78
2022/11/22 00:44:28;;;;;;;319.17;95.77;;;2.80;99.90;;;;;;10458865;28;20057;-79
2022/11/22 00:49:29;;;;;;;247.17;85.63;;;2.90;99.90;;;;;;10460479;28;20063;-77
2022/11/22 00:54:30;;;;;;;260.43;95.07;;;2.90;99.90;;;;;;10458659;28;20089;-78
2022/11/22 00:59:30;;;;;;;258.63;100.10;;;2.90;99.90;;;;;;10481220;28;20473;-77
2022/11/22 01:04:31;;;;;;;384.73;113.73;;;3.00;99.90;;;;;;10472781;28;20039;-79
2022/11/22 01:09:31;;;;;;;354.13;110.90;;;3.00;99.90;;;;;;10476402;28;20056;-78
2022/11/22 01:14:32;;;;;;;426.77;101.80;;;3.00;99.90;;;;;;10463806;28;20090;-77
2022/11/22 01:19:32;;;;;;;718.57;138.50;;;3.00;99.90;;;;;;10469041;28;20107;-79
2022/11/22 01:24:33;;;;;;;768.00;147.20;;;3.00;99.90;;;;;;10454691;28;20573;-77
2022/11/22 01:29:33;;;;;;;657.87;134.07;;;3.00;99.90;;;;;;10476170;28;20077;-77
2022/11/22 01:34:34;;;;;;;672.07;160.07;;;3.00;99.90;;;;;;10480653;28;20040;-78
2022/11/22 01:39:34;;;;;;;750.10;180.30;;;2.90;99.90;;;;;;10472308;28;20037;-78
2022/11/22 01:44:35;;;;;;;781.33;172.60;;;3.00;99.90;;;;;;10460383;28;20049;-77
2022/11/22 01:49:40;;;;;;;549.90;128.53;;;2.90;99.90;;;;;;10452977;28;20102;-77
2022/11/22 01:54:44;;;;;;;590.22;144.07;;;2.80;99.90;;;;;;10471897;28;20380;-78
2022/11/22 02:00:09;;;;;;;547.07;112.77;;;2.90;99.90;;;;;;10474991;28;20039;-78
2022/11/22 02:05:14;;;;;;;816.73;152.13;;;2.80;99.90;;;;;;10452947;28;20700;-77
2022/11/22 02:10:17;;;;;;;560.50;122.93;;;2.70;99.90;;;;;;10477618;28;20059;-78
2022/11/22 02:15:18;;;;;;;526.43;113.73;;;2.70;99.90;;;;;;10475556;28;20063;-79
2022/11/22 02:20:19;;;;;;;701.37;127.57;;;2.60;99.90;;;;;;10479083;28;20491;-78
2022/11/22 02:25:40;;;;;;;373.83;93.03;;;2.50;99.90;;;;;;10482896;28;20506;-78
2022/11/22 02:30:41;;;;;;;448.93;87.47;;;2.50;99.90;;;;;;10459947;28;20089;-78
2022/11/22 02:35:43;;;;;;;645.40;120.70;;;2.40;99.90;;;;;;10455646;28;20070;-78
2022/11/22 02:40:54;;;;;;;704.53;128.87;;;2.30;99.90;;;;;;10468142;28;20036;-80
2022/11/22 02:45:55;;;;;;;485.17;94.20;;;2.40;99.90;;;;;;10461176;28;20498;-78
2022/11/22 02:50:56;;;;;;;441.90;104.60;;;2.30;99.90;;;;;;10474126;28;20041;-76
2022/11/22 02:55:56;;;;;;;295.00;71.00;;;2.20;99.90;;;;;;10484114;28;20499;-78
2022/11/22 03:00:57;;;;;;;430.37;95.53;;;2.20;99.90;;;;;;10460387;28;20043;-77
2022/11/22 03:05:57;;;;;;;361.23;78.50;;;2.20;99.90;;;;;;10449520;28;20043;-78
2022/11/22 03:10:58;;;;;;;433.20;91.20;;;2.10;99.90;;;;;;10478285;28;20434;-77
2022/11/22 03:15:59;;;;;;;427.77;89.83;;;2.10;99.90;;;;;;10466645;28;20033;-79
2022/11/22 03:21:04;;;;;;;204.93;62.73;;;2.00;99.90;;;;;;10455094;28;20397;-77
2022/11/22 03:26:09;;;;;;;404.27;89.87;;;1.90;99.90;;;;;;10463092;28;20564;-78
2022/11/22 03:31:10;;;;;;;507.98;99.63;;;1.90;99.90;;;;;;10449842;28;20071;-78
2022/11/22 03:36:10;;;;;;;380.40;80.80;;;1.80;99.90;;;;;;10457979;28;20548;-78
2022/11/22 03:41:11;;;;;;;374.27;81.57;;;1.80;99.90;;;;;;10446834;28;20064;-78
2022/11/22 03:46:18;;;;;;;581.20;117.20;;;1.70;99.90;;;;;;10415476;28;1252831;-77
2022/11/22 03:51:18;;;;;;;593.47;120.00;;;1.50;99.90;;;;;;10468297;28;20060;-77
2022/11/22 03:56:19;;;;;;;256.73;65.07;;;1.40;99.90;;;;;;10461542;28;20567;-79
2022/11/22 04:01:19;;;;;;;527.17;105.40;;;1.30;99.90;;;;;;10458601;28;20051;-78
2022/11/22 04:06:20;;;;;;;525.03;104.37;;;1.30;99.90;;;;;;10438147;28;20056;-77
2022/11/22 04:11:21;;;;;;;510.63;105.40;;;1.20;99.90;;;;;;10437218;28;20037;-77
2022/11/22 04:16:21;;;;;;;222.23;64.43;;;1.10;99.90;;;;;;10434198;28;20098;-77
2022/11/22 04:21:34;;;;;;;247.77;69.27;;;1.00;99.90;;;;;;10464879;28;20213;-78
2022/11/22 04:26:34;;;;;;;222.90;63.20;;;1.00;99.90;;;;;;10485790;28;20734;-78
2022/11/22 04:36:54;;;;;;;271.43;71.17;;;0.70;99.90;;;;;;10460119;28;20052;-78
2022/11/22 04:52:54;;;;;;;208.57;63.07;;;0.30;99.90;;;;;;10451344;28;20040;-78
2022/11/22 04:57:55;;;;;;;479.27;111.50;;;0.30;99.90;;;;;;10451148;28;20404;-77
2022/11/22 05:02:56;;;;;;;198.07;56.33;;;0.40;99.90;;;;;;10461750;28;20029;-77
2022/11/22 05:07:57;;;;;;;130.47;43.10;;;0.40;99.90;;;;;;10470374;28;20107;-77
2022/11/22 05:12:58;;;;;;;161.27;48.07;;;0.30;99.90;;;;;;10466636;28;20036;-78
2022/11/22 05:17:58;;;;;;;139.00;45.43;;;0.30;99.90;;;;;;10472688;28;20017;-78
2022/11/22 05:28:18;;;;;;;109.43;37.73;;;0.10;99.90;;;;;;10473695;28;20489;-77
2022/11/22 05:33:19;;;;;;;118.93;38.00;;;0.00;99.90;;;;;;10488474;28;20040;-77
2022/11/22 05:38:19;;;;;;;162.27;46.57;;;0.00;99.90;;;;;;10470893;28;20032;-76
2022/11/22 05:43:20;;;;;;;157.33;51.17;;;-0.10;99.90;;;;;;10473214;28;20036;-76
2022/11/22 05:48:20;;;;;;;167.67;50.20;;;-0.30;99.90;;;;;;10480733;28;20044;-75
2022/11/22 05:53:21;;;;;;;171.53;48.07;;;-0.40;99.90;;;;;;10483382;28;20112;-77
2022/11/22 05:58:21;;;;;;;159.27;49.43;;;-0.50;99.90;;;;;;10479478;28;20062;-76
2022/11/22 06:03:22;;;;;;;158.23;45.93;;;-0.50;99.90;;;;;;10488047;28;20032;-76
2022/11/22 06:08:22;;;;;;;209.70;51.13;;;-0.60;99.90;;;;;;10487567;28;20040;-77
2022/11/22 06:13:23;;;;;;;221.37;56.27;;;-0.70;99.90;;;;;;10487926;28;20045;-77
2022/11/22 06:18:23;;;;;;;247.03;56.07;;;-0.70;99.90;;;;;;10486991;28;20035;-76
2022/11/22 06:23:24;;;;;;;223.77;54.47;;;-0.60;99.90;;;;;;10487179;28;20036;-76
2022/11/22 06:28:27;;;;;;;199.43;53.83;;;-0.60;99.90;;;;;;10486743;28;20063;-77
2022/11/22 06:33:28;;;;;;;283.90;64.03;;;-0.60;99.90;;;;;;10486431;28;20028;-78
2022/11/22 06:38:28;;;;;;;165.30;50.20;;;-0.50;99.90;;;;;;10486891;28;20032;-76
2022/11/22 06:43:30;;;;;;;208.13;49.27;;;-0.50;99.90;;;;;;10486360;28;20515;-76
2022/11/22 06:48:32;;;;;;;131.10;43.63;;;-0.20;99.90;;;;;;10485557;28;20050;-76
2022/11/22 06:53:34;;;;;;;101.13;42.90;;;-0.10;99.90;;;;;;10478348;28;20025;-78
2022/11/22 06:58:35;;;;;;;171.00;67.10;;;0.00;99.90;;;;;;10479274;28;20043;-76
2022/11/22 07:03:40;;;;;;;151.80;63.20;;;0.10;99.90;;;;;;10485448;28;20036;-77
2022/11/22 07:08:42;;;;;;;215.87;93.27;;;0.10;99.90;;;;;;10485068;28;20048;-77
2022/11/22 07:13:43;;;;;;;163.40;73.60;;;0.10;99.90;;;;;;10485208;28;20029;-76
2022/11/22 07:18:43;;;;;;;121.67;46.87;;;0.20;99.90;;;;;;10484682;28;20056;-77
2022/11/22 07:23:46;;;;;;;122.87;47.43;;;0.30;99.90;;;;;;10484163;28;20031;-76
2022/11/22 07:28:47;;;;;;;115.60;45.57;;;0.40;99.90;;;;;;10484370;28;20819;-79
2022/11/22 07:33:48;;;;;;;101.57;43.40;;;0.60;99.90;;;;;;10484096;28;20136;-77
2022/11/22 07:38:50;;;;;;;99.37;43.70;;;0.80;99.90;;;;;;10484605;28;20699;-77
2022/11/22 07:43:51;;;;;;;113.27;47.73;;;0.90;99.90;;;;;;10484009;28;20091;-76
2022/11/22 07:48:52;;;;;;;115.00;49.13;;;1.10;99.90;;;;;;10484410;28;20036;-77
2022/11/22 07:53:54;;;;;;;114.80;48.23;;;1.20;99.90;;;;;;10473781;28;20028;-78
2022/11/22 07:58:54;;;;;;;99.93;46.07;;;1.40;99.90;;;;;;10479655;28;20537;-78
2022/11/22 08:03:55;;;;;;;110.50;48.10;;;1.60;99.90;;;;;;10482750;28;20089;-77
2022/11/22 08:08:56;;;;;;;103.70;43.40;;;1.80;99.90;;;;;;10483873;28;20120;-76
2022/11/22 08:13:57;;;;;;;79.13;37.33;;;2.20;99.90;;;;;;10483886;28;20023;-78
2022/11/22 08:18:57;;;;;;;91.47;41.47;;;2.50;99.90;;;;;;10483647;28;20021;-76
2022/11/22 08:23:58;;;;;;;92.27;41.80;;;2.80;99.90;;;;;;10483026;28;20120;-77
2022/11/22 08:28:59;;;;;;;83.53;41.60;;;3.00;99.90;;;;;;10483814;28;20119;-77
2022/11/22 08:34:00;;;;;;;105.37;53.57;;;3.30;99.90;;;;;;10482762;28;20121;-77
2022/11/22 08:39:00;;;;;;;92.83;47.23;;;3.60;99.90;;;;;;10483336;28;20029;-77
2022/11/22 08:44:01;;;;;;;95.23;45.73;;;3.90;99.90;;;;;;10480145;28;20072;-77
2022/11/22 08:49:05;;;;;;;85.33;44.77;;;4.10;99.90;;;;;;10471728;28;20053;-78
2022/11/22 08:54:05;;;;;;;63.33;33.53;;;4.40;99.90;;;;;;10470876;28;20033;-79
2022/11/22 08:59:06;;;;;;;72.27;35.63;;;4.60;99.90;;;;;;10480171;28;20028;-78
2022/11/22 09:04:07;;;;;;;74.00;37.67;;;4.80;99.90;;;;;;10482865;28;20187;-77
2022/11/22 09:09:07;;;;;;;55.33;30.30;;;4.90;99.90;;;;;;10482613;28;20045;-76
2022/11/22 09:14:08;;;;;;;56.80;30.87;;;5.10;99.90;;;;;;10487153;28;20105;-78
2022/11/22 09:19:09;;;;;;;57.20;30.93;;;5.30;99.90;;;;;;10489637;28;20020;-77
2022/11/22 09:24:09;;;;;;;62.00;32.07;;;5.40;99.90;;;;;;10489422;28;20025;-76
2022/11/22 09:29:10;;;;;;;56.93;29.93;;;5.70;99.90;;;;;;10489341;28;20032;-77
2022/11/22 09:34:10;;;;;;;54.60;29.23;;;5.90;99.90;;;;;;10489504;28;20012;-77
2022/11/22 09:39:11;;;;;;;66.67;33.27;;;6.20;99.90;;;;;;10489020;28;20043;-78
2022/11/22 09:44:30;;;;;;;53.17;28.33;;;6.50;99.90;;;;;;10474622;28;20123;-77
2022/11/22 09:49:53;;;;;;;50.07;26.80;;;6.60;99.90;;;;;;10489227;28;20094;-77
2022/11/22 09:55:01;;;;;;;47.73;26.43;;;6.90;99.90;;;;;;10474344;28;20066;-76
2022/11/22 10:00:28;;;;;;;46.10;24.80;;;7.10;99.90;;;;;;10488349;28;20075;-77
2022/11/22 10:05:50;;;;;;;37.90;21.23;;;7.30;99.90;;;;;;10477438;28;20040;-77
2022/11/22 10:10:54;;;;;;;34.63;14.97;;;7.50;99.90;;;;;;10485047;28;20120;-77
2022/11/22 10:16:15;;;;;;;25.77;12.67;;;7.70;99.90;;;;;;10487803;28;20056;-77
2022/11/22 10:21:18;;;;;;;22.37;11.33;;;7.90;99.90;;;;;;10487479;28;20029;-77
2022/11/22 10:26:48;;;;;;;20.97;10.97;;;8.10;99.90;;;;;;10487411;28;20059;-78
2022/11/22 10:31:59;;;;;;;19.77;10.73;;;8.30;99.90;;;;;;10469050;28;20144;-77
2022/11/22 10:37:04;;;;;;;16.57;9.23;;;8.50;99.90;;;;;;10486955;28;20025;-77
2022/11/22 10:42:07;;;;;;;15.97;9.50;;;8.60;99.90;;;;;;10486929;28;20388;-77
2022/11/22 10:47:07;;;;;;;19.00;10.27;;;8.70;99.90;;;;;;10486164;28;20052;-77
2022/11/22 10:52:22;;;;;;;17.83;11.10;;;8.90;99.90;;;;;;10487062;28;20090;-77
2022/11/22 10:57:44;;;;;;;18.10;10.90;;;9.00;99.90;;;;;;10472454;28;20082;-77
2022/11/22 11:03:21;;;;;;;12.77;7.77;;;9.10;99.90;;;;;;10472032;28;20024;-77
2022/11/22 11:08:37;;;;;;;22.73;12.43;;;9.20;99.90;;;;;;10485437;28;20040;-77
2022/11/22 11:13:46;;;;;;;29.20;11.60;;;9.30;99.90;;;;;;10486166;28;20685;-76
2022/11/22 11:18:56;;;;;;;18.10;10.67;;;9.40;99.90;;;;;;10485390;28;20036;-78
2022/11/22 11:23:57;;;;;;;16.63;8.27;;;9.50;99.90;;;;;;10485280;28;20029;-78
2022/11/22 11:29:15;;;;;;;10.83;5.60;;;9.60;99.90;;;;;;10484484;28;20028;-77
2022/11/22 11:34:26;;;;;;;12.70;7.07;;;9.70;99.90;;;;;;10485257;28;20017;-78
2022/11/22 11:39:31;;;;;;;13.23;6.53;;;9.70;99.90;;;;;;10484499;28;20064;-77
2022/11/22 11:44:36;;;;;;;3.83;2.92;;;9.80;99.90;;;;;;10485188;28;20052;-77
2022/11/22 11:49:37;;;;;;;7.93;4.50;;;9.90;99.90;;;;;;10466414;28;20123;-77
2022/11/22 11:54:41;;;;;;;8.23;4.47;;;9.50;99.90;;;;;;10470128;28;20032;-76
2022/11/22 11:59:46;;;;;;;7.00;4.37;;;9.30;99.90;;;;;;10484328;28;20029;-76
2022/11/22 12:04:51;;;;;;;6.83;4.07;;;9.60;99.90;;;;;;10484099;28;20028;-77
2022/11/22 12:09:54;;;;;;;7.43;3.97;;;9.90;99.90;;;;;;10484003;28;20036;-78
2022/11/22 12:15:21;;;;;;;17.53;7.87;;;10.00;99.90;;;;;;10483556;28;20036;-76
2022/11/22 12:20:34;;;;;;;12.60;7.17;;;9.50;99.90;;;;;;10483722;28;20033;-76
2022/11/22 12:25:38;;;;;;;222.43;162.63;;;9.00;99.90;;;;;;10483493;28;20116;-77
2022/11/22 12:30:41;;;;;;;164.47;113.50;;;8.60;99.90;;;;;;10483500;28;20587;-77
2022/11/22 12:35:43;;;;;;;58.30;24.60;;;8.50;99.90;;;;;;10483666;28;20033;-77
2022/11/22 12:40:51;;;;;;;88.23;28.70;;;8.40;99.90;;;;;;10483495;28;20411;-76
2022/11/22 12:45:56;;;;;;;82.80;31.70;;;8.40;99.90;;;;;;10478300;28;20791;-78
2022/11/22 12:51:14;;;;;;;104.10;41.43;;;8.30;99.90;;;;;;10467039;28;20115;-77
2022/11/22 12:56:28;;;;;;;55.47;22.27;;;8.20;99.90;;;;;;10476678;28;20425;-77
2022/11/22 13:01:40;;;;;;;35.93;15.57;;;8.10;99.90;;;;;;10491308;28;20073;-75
2022/11/22 13:07:01;;;;;;;31.00;14.60;;;8.10;99.90;;;;;;10490746;28;20028;-76
2022/11/22 13:12:10;;;;;;;77.90;33.67;;;8.10;99.90;;;;;;10490495;28;20101;-77
2022/11/22 13:17:13;;;;;;;128.47;55.63;;;8.00;99.90;;;;;;10490059;28;20039;-76
2022/11/22 13:22:49;;;;;;;96.60;36.87;;;8.00;99.90;;;;;;10489929;28;20052;-77
2022/11/22 13:27:51;;;;;;;188.02;73.03;;;7.90;99.90;;;;;;10471288;28;20040;-77
2022/11/22 13:32:58;;;;;;;297.47;113.93;;;7.80;99.90;;;;;;10489732;28;20157;-77
2022/11/22 13:38:06;;;;;;;244.23;101.37;;;7.70;99.90;;;;;;10485146;28;20327;-79
2022/11/22 13:43:12;;;;;;;197.77;86.17;;;7.60;99.90;;;;;;10474527;28;20483;-76
2022/11/22 13:48:13;;;;;;;104.43;49.60;;;7.50;99.90;;;;;;10489375;28;20106;-77
2022/11/22 13:53:23;;;;;;;103.63;41.17;;;7.40;99.90;;;;;;10469469;28;20476;-76
2022/11/22 13:58:23;;;;;;;90.93;33.20;;;7.40;99.90;;;;;;10476548;28;20075;-76
2022/11/22 14:03:27;;;;;;;88.93;32.47;;;7.40;99.90;;;;;;10488802;28;20039;-78
2022/11/22 14:08:39;;;;;;;211.87;172.80;;;7.40;99.90;;;;;;10462577;28;20040;-77
2022/11/22 14:13:51;;;;;;;70.73;40.10;;;7.30;99.90;;;;;;10471443;28;20052;-77
2022/11/22 14:18:57;;;;;;;102.17;59.30;;;7.20;99.90;;;;;;10452667;28;20036;-78
2022/11/22 14:24:01;;;;;;;111.67;80.10;;;7.00;99.90;;;;;;10476145;28;20543;-78
2022/11/22 14:29:01;;;;;;;111.23;59.53;;;6.90;99.90;;;;;;10452115;28;20063;-78
2022/11/22 14:34:15;;;;;;;252.17;204.73;;;6.70;99.90;;;;;;10467660;28;20036;-77
2022/11/22 14:39:44;;;;;;;102.10;69.90;;;6.50;99.90;;;;;;10476783;28;20086;-77
2022/11/22 14:44:49;;;;;;;136.03;93.93;;;6.40;99.90;;;;;;10454102;28;20404;-77
2022/11/22 14:49:52;;;;;;;74.00;37.55;;;6.20;99.90;;;;;;10478644;28;20037;-78
2022/11/22 14:54:59;;;;;;;80.03;43.70;;;6.10;99.90;;;;;;10471754;28;20017;-77
2022/11/22 15:00:22;;;;;;;72.23;34.10;;;6.00;99.90;;;;;;10486190;28;20031;-77
2022/11/22 15:05:29;;;;;;;63.63;33.27;;;5.70;99.90;;;;;;10486315;28;20039;-78
2022/11/22 15:10:32;;;;;;;57.07;29.87;;;5.60;99.90;;;;;;10485128;28;20036;-78
2022/11/22 15:15:36;;;;;;;55.70;26.17;;;5.50;99.90;;;;;;10485948;28;20025;-77
2022/11/22 15:20:41;;;;;;;73.17;30.13;;;5.40;99.90;;;;;;10485478;28;20027;-78
2022/11/22 15:25:43;;;;;;;70.00;29.93;;;5.30;99.90;;;;;;10485811;28;20017;-77
2022/11/22 15:30:46;;;;;;;48.80;23.17;;;5.30;99.90;;;;;;10484862;28;20063;-77
2022/11/22 15:36:04;;;;;;;40.50;20.63;;;5.20;99.90;;;;;;10485050;28;20385;-77
2022/11/22 15:41:05;;;;;;;41.90;20.30;;;5.10;99.90;;;;;;10484797;28;20056;-77
2022/11/22 15:46:07;;;;;;;45.83;22.80;;;5.10;99.90;;;;;;10484329;28;20048;-78
2022/11/22 15:51:13;;;;;;;39.83;20.60;;;4.90;99.90;;;;;;10484521;28;20110;-77
2022/11/22 15:56:25;;;;;;;46.60;21.30;;;4.90;99.90;;;;;;10469861;28;20464;-77
2022/11/22 16:01:26;;;;;;;60.83;26.10;;;4.90;99.90;;;;;;10484583;28;20021;-78
2022/11/22 16:06:30;;;;;;;52.33;23.73;;;4.90;99.90;;;;;;10483995;28;20024;-78
2022/11/22 16:11:36;;;;;;;45.70;23.07;;;5.00;99.90;;;;;;10484016;28;20040;-78
2022/11/22 16:16:37;;;;;;;60.20;27.80;;;5.00;99.90;;;;;;10483740;28;20032;-77
2022/11/22 16:21:37;;;;;;;68.37;30.73;;;5.00;99.90;;;;;;10485534;28;20050;-77
2022/11/22 16:26:38;;;;;;;63.73;31.17;;;5.00;99.90;;;;;;10493322;28;20469;-77
2022/11/22 16:31:39;;;;;;;48.10;24.33;;;5.00;99.90;;;;;;10492043;28;20123;-77
2022/11/22 16:36:40;;;;;;;43.80;22.83;;;5.00;99.90;;;;;;10492141;28;20392;-77
2022/11/22 16:41:41;;;;;;;47.13;23.90;;;5.00;99.90;;;;;;10454509;28;20040;-77
2022/11/22 16:46:42;;;;;;;48.60;24.23;;;5.00;99.90;;;;;;10457187;28;20109;-78
2022/11/22 16:51:43;;;;;;;90.77;39.17;;;5.10;99.90;;;;;;10469477;28;20478;-78
2022/11/22 16:56:44;;;;;;;61.60;29.73;;;5.20;99.90;;;;;;10465940;28;20029;-79
2022/11/22 17:01:45;;;;;;;57.27;27.17;;;5.30;99.90;;;;;;10466859;28;20032;-78
2022/11/22 17:06:45;;;;;;;102.90;51.57;;;5.30;99.90;;;;;;10455587;28;20030;-78
2022/11/22 17:11:46;;;;;;;85.77;43.40;;;5.30;99.90;;;;;;10473257;28;20563;-78
2022/11/22 17:16:47;;;;;;;118.07;58.23;;;5.30;99.90;;;;;;10461806;28;20033;-78
2022/11/22 17:21:47;;;;;;;110.87;55.80;;;5.30;99.90;;;;;;10457085;28;20480;-78
2022/11/22 17:26:48;;;;;;;82.90;41.40;;;5.30;99.90;;;;;;10476389;28;20081;-77
2022/11/22 17:31:49;;;;;;;556.97;315.43;;;5.30;99.90;;;;;;10476047;28;20045;-77
2022/11/22 17:36:49;;;;;;;195.23;93.50;;;5.30;99.90;;;;;;10468159;28;20032;-77
2022/11/22 17:41:50;;;;;;;269.43;153.03;;;5.30;99.90;;;;;;10465911;28;20389;-77
2022/11/22 17:46:50;;;;;;;90.07;55.67;;;5.30;99.90;;;;;;10464761;28;20080;-78
2022/11/22 17:51:51;;;;;;;51.27;26.30;;;5.30;99.90;;;;;;10462614;28;20118;-77
2022/11/22 17:56:51;;;;;;;55.87;32.43;;;5.20;99.90;;;;;;10462582;28;20131;-78
2022/11/22 18:01:52;;;;;;;74.77;53.13;;;5.20;99.90;;;;;;10464864;28;20036;-77
2022/11/22 18:06:52;;;;;;;89.60;67.00;;;5.20;99.90;;;;;;10453910;28;20036;-78
2022/11/22 18:11:54;;;;;;;48.80;29.73;;;5.10;99.90;;;;;;10478100;28;20041;-78
2022/11/22 18:16:55;;;;;;;51.90;30.53;;;5.10;99.90;;;;;;10473503;28;20028;-78
2022/11/22 18:21:55;;;;;;;61.43;38.37;;;5.10;99.90;;;;;;10461968;28;20040;-78
2022/11/22 18:26:56;;;;;;;75.40;45.87;;;5.00;99.90;;;;;;10462906;28;20467;-78
2022/11/22 18:31:57;;;;;;;59.17;33.50;;;5.00;99.90;;;;;;10469460;28;20072;-79
2022/11/22 18:36:58;;;;;;;60.30;38.20;;;5.00;99.90;;;;;;10461275;28;20032;-78
2022/11/22 18:41:59;;;;;;;39.27;20.40;;;5.10;99.90;;;;;;10469933;28;20138;-79
2022/11/22 18:46:59;;;;;;;39.23;20.67;;;5.10;99.90;;;;;;10453680;28;20049;-79
2022/11/22 18:52:00;;;;;;;40.00;23.37;;;5.00;99.90;;;;;;10453730;28;20040;-79
2022/11/22 18:57:01;;;;;;;38.77;24.03;;;5.00;99.90;;;;;;10446651;28;20494;-79
2022/11/22 19:02:01;;;;;;;66.90;33.83;;;5.00;99.90;;;;;;10464098;28;20059;-77
2022/11/22 19:07:02;;;;;;;63.27;30.53;;;5.00;99.90;;;;;;10470374;28;20570;-77
2022/11/22 19:12:03;;;;;;;49.07;24.73;;;5.10;99.90;;;;;;10470965;28;20060;-78
2022/11/22 19:17:04;;;;;;;42.77;22.27;;;5.00;99.90;;;;;;10454604;28;20067;-78
2022/11/22 19:22:04;;;;;;;42.00;21.37;;;5.00;99.90;;;;;;10448247;28;20057;-78
2022/11/22 19:27:05;;;;;;;41.63;22.23;;;5.00;99.90;;;;;;10462857;28;20044;-79
2022/11/22 19:32:05;;;;;;;38.80;20.40;;;4.90;99.90;;;;;;10450333;28;20800;-79
2022/11/22 19:37:06;;;;;;;40.93;21.70;;;4.90;99.90;;;;;;10453111;28;20047;-80
2022/11/22 19:42:07;;;;;;;43.60;23.57;;;4.90;99.90;;;;;;10458456;28;20033;-78
2022/11/22 19:47:07;;;;;;;47.70;23.13;;;4.80;99.90;;;;;;10456249;28;20802;-78
2022/11/22 19:52:08;;;;;;;45.63;22.53;;;4.70;99.90;;;;;;10450600;28;20155;-80
2022/11/22 19:57:08;;;;;;;40.87;22.57;;;4.60;99.90;;;;;;10448418;28;20116;-79
2022/11/22 20:02:09;;;;;;;42.27;21.87;;;4.60;99.90;;;;;;10457298;28;20479;-79
2022/11/22 20:07:10;;;;;;;44.73;21.63;;;4.50;99.90;;;;;;10469757;28;20032;-79
2022/11/22 20:12:14;;;;;;;44.10;23.90;;;4.50;99.90;;;;;;10455148;28;20075;-80
2022/11/22 20:17:15;;;;;;;47.23;25.43;;;4.50;99.90;;;;;;10427123;28;20072;-81
2022/11/22 20:22:15;;;;;;;44.53;23.57;;;4.40;99.90;;;;;;10461705;28;20445;-81
2022/11/22 20:27:18;;;;;;;45.57;23.90;;;4.40;99.90;;;;;;10442755;28;20029;-80
2022/11/22 20:32:19;;;;;;;45.57;23.30;;;4.20;99.90;;;;;;10470024;28;20436;-80
2022/11/22 20:37:20;;;;;;;47.67;24.73;;;4.10;99.90;;;;;;10483014;28;20028;-81
2022/11/22 20:42:20;;;;;;;50.83;25.73;;;4.00;99.90;;;;;;10459779;28;20064;-78
2022/11/22 20:47:21;;;;;;;50.17;25.70;;;3.80;99.90;;;;;;10428848;28;20057;-78
2022/11/22 20:52:21;;;;;;;50.50;26.30;;;3.60;99.90;;;;;;10430446;28;20049;-79
2022/11/22 20:57:22;;;;;;;51.70;26.43;;;3.60;99.90;;;;;;10416897;28;20120;-80
2022/11/22 21:02:22;;;;;;;48.70;25.43;;;3.40;99.90;;;;;;10415555;28;20075;-79
2022/11/22 21:07:24;;;;;;;57.40;28.33;;;3.30;99.90;;;;;;10427188;28;20045;-79
2022/11/22 21:12:25;;;;;;;58.63;29.20;;;3.20;99.90;;;;;;10420685;28;20752;-79
2022/11/22 21:17:27;;;;;;;59.90;30.83;;;3.10;99.90;;;;;;10421521;28;20420;-80
2022/11/22 21:22:28;;;;;;;57.73;28.67;;;3.00;99.90;;;;;;10421866;28;20048;-78
2022/11/22 21:27:28;;;;;;;54.37;28.83;;;2.90;99.90;;;;;;10426502;28;20063;-79
2022/11/22 21:32:30;;;;;;;66.27;30.00;;;2.90;99.90;;;;;;10423542;28;20037;-79
2022/11/22 21:37:31;;;;;;;60.17;29.80;;;2.80;99.90;;;;;;10417207;28;20516;-79
2022/11/22 21:42:31;;;;;;;65.63;30.93;;;2.70;99.90;;;;;;10426836;28;20029;-79
2022/11/22 21:47:32;;;;;;;66.43;32.87;;;2.60;99.90;;;;;;10461100;28;20064;-79
2022/11/22 21:52:32;;;;;;;65.87;32.73;;;2.60;99.90;;;;;;10458210;28;20479;-79
2022/11/22 21:57:33;;;;;;;68.87;34.77;;;2.50;99.90;;;;;;10463708;28;20048;-79
2022/11/22 22:02:34;;;;;;;74.13;34.23;;;2.50;99.90;;;;;;10469928;28;20036;-79
2022/11/22 22:07:35;;;;;;;76.33;34.87;;;2.40;99.90;;;;;;10457273;28;20045;-78
2022/11/22 22:12:38;;;;;;;75.83;34.13;;;2.30;99.90;;;;;;10464255;28;20051;-79
2022/11/22 22:17:38;;;;;;;71.50;32.10;;;2.30;99.90;;;;;;10464731;28;20064;-78
2022/11/22 22:22:39;;;;;;;77.27;34.43;;;2.30;99.90;;;;;;10472053;28;20111;-78
2022/11/22 22:27:40;;;;;;;83.67;36.90;;;2.20;99.90;;;;;;10466206;28;20115;-78
2022/11/22 22:32:40;;;;;;;89.53;39.17;;;2.10;99.90;;;;;;10458253;28;20183;-80
2022/11/22 22:37:41;;;;;;;89.87;39.17;;;1.90;99.90;;;;;;10469381;28;20036;-79
2022/11/22 22:42:41;;;;;;;93.73;37.67;;;1.80;99.90;;;;;;10461521;28;20040;-79
2022/11/22 22:47:42;;;;;;;82.80;37.30;;;1.70;99.90;;;;;;10448206;28;20063;-80
2022/11/22 22:52:42;;;;;;;91.13;38.20;;;1.60;99.90;;;;;;10474282;28;20036;-79
2022/11/22 22:57:43;;;;;;;83.10;34.83;;;1.60;99.90;;;;;;10451988;28;20051;-79
2022/11/22 23:02:43;;;;;;;84.10;35.03;;;1.50;99.90;;;;;;10462025;28;20032;-79
2022/11/22 23:07:44;;;;;;;76.80;32.10;;;1.40;99.90;;;;;;10467225;28;20074;-78
2022/11/22 23:12:44;;;;;;;81.57;32.03;;;1.40;99.90;;;;;;10459831;28;20535;-78
2022/11/22 23:17:45;;;;;;;76.70;33.27;;;1.30;99.90;;;;;;10456753;28;20112;-80
2022/11/22 23:22:45;;;;;;;84.57;32.37;;;1.30;99.90;;;;;;10464307;28;20029;-78
2022/11/22 23:27:46;;;;;;;74.87;32.83;;;1.20;99.90;;;;;;10458039;28;20029;-78
2022/11/22 23:32:46;;;;;;;73.83;31.73;;;1.10;99.90;;;;;;10440873;28;20369;-79
2022/11/22 23:37:47;;;;;;;80.53;33.27;;;1.10;99.90;;;;;;10469127;28;20085;-79
2022/11/22 23:42:47;;;;;;;77.03;31.20;;;1.00;99.90;;;;;;10453527;28;20466;-78
2022/11/22 23:47:52;;;;;;;82.47;34.07;;;0.90;99.90;;;;;;10458678;28;20520;-79
2022/11/22 23:52:55;;;;;;;86.50;34.67;;;0.90;99.90;;;;;;10459064;28;20744;-79
2022/11/22 23:57:57;;;;;;;83.67;34.20;;;0.80;99.90;;;;;;10445011;28;20065;-79
